Terminal Aerodrome Forecast
Issued by NWS

Home | Current Version | Previous Version | Text Only | Print | Product List | Glossary On
Versions: 1 2 3 4 5 6 7 8 9 10 11 12 13 14 15 16 17 18 19 20 21 22 23 24 25 26 27 28 29 30 31 32 33 34 35 36
473
FTUS41 KGYX 261722
TAFMHT
TAF
KMHT 261722Z 2618/2718 19006KT P6SM SCT250
     FM270800 18006KT P6SM -SHRA SCT025 BKN050 OVC100
     FM271000 18006KT 4SM -SHRA BR BKN012 OVC025
     FM271500 30005KT P6SM SCT025=

USA.gov is the U.S. government's official web portal to all federal, state and local government web resources and services.